This is the latest recevied weather packets stored in our database for station/object DO2DV-13. If no packets are shown the sender has not sent any weather packets the latest 10 day(s).
| Time | Temp. | Humidity | Pressure | Rain* | Wind** | Luminosity | Snow |
|---|---|---|---|---|---|---|---|
| 1777846223 | 12.78° C | 74% | 1014.6 hPa | 0 mm | - | 0 W/m² | - |
| 1777839054 | 15° C | 66% | 1014.9 hPa | 0 mm | - | 0 W/m² | - |
| 1777837262 | 15.56° C | 60% | 1014.6 hPa | 0 mm | - | 0 W/m² | - |
| 1777836623 | 16.11° C | 57% | 1014.7 hPa | 0 mm | - | 0 W/m² | - |
| 1777833663 | 16.67° C | 54% | 1014.8 hPa | 0 mm | - | 3 W/m² | - |
| 1777832446 | 16.67° C | 52% | 1015 hPa | 0 mm | - | 7 W/m² | - |
| 1777830654 | 17.78° C | 45% | 1014.8 hPa | 0 mm | - | 25 W/m² | - |
| 1777830079 | 18.33° C | 43% | 1014.7 hPa | 0 mm | - | 27 W/m² | - |
| 1777829458 | 18.33° C | 42% | 1014.6 hPa | 0 mm | - | 36 W/m² | - |
| 1777826431 | 19.44° C | 41% | 1014.8 hPa | 0 mm | - | 91 W/m² | - |
| 1777825855 | 20° C | 40% | 1014.6 hPa | 0 mm | - | 86 W/m² | - |
| 1777825279 | 20.56° C | 38% | 1014.3 hPa | 0 mm | - | 110 W/m² | - |
| 1777824064 | 21.11° C | 36% | 1014.2 hPa | 0 mm | - | 91 W/m² | - |
| 1777822847 | 21.67° C | 34% | 1013.8 hPa | 0 mm | - | 128 W/m² | - |
| 1777821631 | 22.78° C | 33% | 1013.6 hPa | 0 mm | - | 147 W/m² | - |
| 1777821055 | 23.33° C | 32% | 1013.4 hPa | 0 mm | - | 199 W/m² | - |
| 1777817471 | 23.33° C | 37% | 1013.7 hPa | 0 mm | - | 194 W/m² | - |
| 1777816831 | 23.33° C | 38% | 1013.7 hPa | 0 mm | - | 252 W/m² | - |
| 1777816255 | 23.89° C | 37% | 1013.9 hPa | 0 mm | - | 229 W/m² | - |
| 1777813247 | 24.44° C | 36% | 1014.1 hPa | 0 mm | - | 617 W/m² | - |
| 1777812031 | 23.33° C | 39% | 1014.4 hPa | 0 mm | - | 680 W/m² | - |
| 1777811495 | 23.33° C | 39% | 1014.5 hPa | 0 mm | - | 683 W/m² | - |
| 1777810239 | 23.33° C | 40% | 1014.5 hPa | 0 mm | - | 629 W/m² | - |
| 1777804271 | 21.67° C | 40% | 1014.9 hPa | 0 mm | - | 80 W/m² | - |
| 1777800046 | 21.67° C | 39% | 1015.3 hPa | 0 mm | - | 370 W/m² | - |
* Rain latest hour (hover to see other rain measurements)
** Current wind speed in m/s (hover to see current wind gust speed)